aviador You're here:

KLTS Decoded Metar

ALTUS in OK, USA
Report Time2018-01-21 22:16:00
UTC Time2018-01-21 22:37:27
Flight Rules mvfr MVFR
Wind220° at 23 Gusting to 34 kt
W.Decomp.*RWY 17: 17.1 kt HW 15.4 kt RCW
W.Rank220° ranks 28
Current wind is above 220° avg. (8.7)
Visibility9999 m
Phenomena:Blowing Widespread Dust
Clouds:Overcast 027 Hf
Expected CloudBase > 15,600 ft AGL from Temp-Dew spread
Ceiling2,700 ft
Temp21°C (ISA +9)
Dew Point-18°C (6% RH)
AAT9.2°C
QNH1004 hPa
Density Alt2,726 ft
Elevation1,378 ft
Report Wrong Elevation
Raw Report
SPECI KLTS 212216Z 22023G34KT 7SM BLDU OVC027 21/M18 A2966 RMK AO2A
CIG 023 RWY35R SLP042 $=

Extra information for KLTS:More info

Metar Taf Metar & Taf Last 4 Metars F.Rules Stats Wind Profile Meteogram Temp Stats Airport Information Weather charts Add Link Nearby VenuesMetar ALERT Operation Metar Decoded Social comments

AIRNAV info for KLTS